createdAt,value
2022-08-01T00:00:58.103Z,20.04
2022-08-01T00:04:01.134Z,20.04
2022-08-01T00:07:04.812Z,20.11
2022-08-01T00:10:11.969Z,20.09
2022-08-01T00:13:14.674Z,20.15
2022-08-01T00:16:17.511Z,20.10
2022-08-01T00:19:20.207Z,20.19
2022-08-01T00:22:23.104Z,20.15
2022-08-01T00:25:34.187Z,20.13
2022-08-01T00:28:37.571Z,20.10
2022-08-01T00:31:40.327Z,20.07
2022-08-01T00:34:43.066Z,20.00
2022-08-01T00:37:45.987Z,19.99
2022-08-01T00:40:49.052Z,19.95
2022-08-01T00:43:51.598Z,19.96
2022-08-01T00:46:54.304Z,19.94
2022-08-01T00:49:56.981Z,19.91
2022-08-01T00:53:00.822Z,19.86
2022-08-01T00:56:04.125Z,19.82
2022-08-01T00:59:08.377Z,19.77
2022-08-01T01:02:14.927Z,19.75
2022-08-01T01:05:18.867Z,19.77
2022-08-01T01:08:28.024Z,19.73
2022-08-01T01:11:41.669Z,19.69
2022-08-01T01:14:54.933Z,19.61
2022-08-01T01:18:38.789Z,19.59
2022-08-01T01:21:52.557Z,19.63
2022-08-01T01:25:16.898Z,19.64
2022-08-01T01:28:36.276Z,19.65
2022-08-01T01:32:14.004Z,19.60
2022-08-01T01:35:23.730Z,19.64
2022-08-01T01:38:30.404Z,19.60
2022-08-01T01:41:36.614Z,19.56
2022-08-01T01:44:39.929Z,19.70
2022-08-01T01:47:45.450Z,19.54
2022-08-01T01:50:49.460Z,19.60
2022-08-01T01:53:55.584Z,19.61
2022-08-01T01:57:01.709Z,19.55
2022-08-01T02:00:07.723Z,19.68
2022-08-01T02:03:13.338Z,19.60
2022-08-01T02:06:17.608Z,19.67
2022-08-01T02:09:21.819Z,19.68
2022-08-01T02:12:25.438Z,19.72
2022-08-01T02:15:30.714Z,19.62
2022-08-01T02:18:34.275Z,19.62
2022-08-01T02:21:36.537Z,19.68
2022-08-01T02:24:50.095Z,19.65
2022-08-01T02:27:58.518Z,19.70
2022-08-01T02:31:09.295Z,19.58
2022-08-01T02:34:16.696Z,19.59
2022-08-01T02:37:22.276Z,19.54
2022-08-01T02:40:27.507Z,19.49
2022-08-01T02:43:34.682Z,19.49
2022-08-01T02:46:44.415Z,19.47
2022-08-01T02:49:53.393Z,19.47
2022-08-01T02:52:58.132Z,19.47
2022-08-01T02:56:03.062Z,19.52
2022-08-01T02:59:10.313Z,19.52
2022-08-01T03:02:15.060Z,19.51
2022-08-01T03:05:18.711Z,19.48
2022-08-01T03:08:23.365Z,19.47
2022-08-01T03:11:27.704Z,19.51
2022-08-01T03:14:35.387Z,19.46
2022-08-01T03:17:39.421Z,19.46
2022-08-01T03:20:43.826Z,19.42
2022-08-01T03:23:47.078Z,19.43
2022-08-01T03:26:53.264Z,19.54
2022-08-01T03:29:58.371Z,19.49
2022-08-01T03:33:01.399Z,19.48
2022-08-01T03:36:09.856Z,19.47
2022-08-01T03:39:16.071Z,19.49
2022-08-01T03:42:27.714Z,19.46
2022-08-01T03:45:41.305Z,19.46
2022-08-01T03:48:48.165Z,19.46
2022-08-01T03:51:52.396Z,19.47
2022-08-01T03:54:57.689Z,19.48
2022-08-01T03:58:01.376Z,19.51
2022-08-01T04:01:04.762Z,19.53
2022-08-01T04:04:08.004Z,19.60
2022-08-01T04:07:28.619Z,19.62
2022-08-01T04:10:31.763Z,19.74
2022-08-01T04:13:37.141Z,19.71
2022-08-01T04:16:41.305Z,19.76
2022-08-01T04:19:44.608Z,19.91
2022-08-01T04:22:47.945Z,19.88
2022-08-01T04:25:51.293Z,19.95
2022-08-01T04:28:55.992Z,19.98
2022-08-01T04:32:01.462Z,20.06
2022-08-01T04:35:22.454Z,20.10
2022-08-01T04:38:28.816Z,20.18
2022-08-01T04:41:33.576Z,20.25
2022-08-01T04:44:36.198Z,20.28
2022-08-01T04:47:40.756Z,20.31
2022-08-01T04:50:43.402Z,20.37
2022-08-01T04:53:50.161Z,20.57
2022-08-01T04:56:54.535Z,20.61
2022-08-01T05:00:00.313Z,20.58
2022-08-01T05:03:04.039Z,20.63
2022-08-01T05:06:07.915Z,20.72
2022-08-01T05:09:10.929Z,20.81
2022-08-01T05:12:14.225Z,20.95
2022-08-01T05:15:17.343Z,20.94
2022-08-01T05:18:26.168Z,21.10
2022-08-01T05:21:31.301Z,21.20
2022-08-01T05:24:40.142Z,21.29
2022-08-01T05:27:42.758Z,21.29
2022-08-01T05:30:45.898Z,21.41
2022-08-01T05:33:48.390Z,21.55
2022-08-01T05:36:56.697Z,21.62
2022-08-01T05:40:00.407Z,21.73
2022-08-01T05:43:03.442Z,21.81
2022-08-01T05:46:05.891Z,21.95
2022-08-01T05:49:08.897Z,22.04
2022-08-01T05:52:12.073Z,22.12
2022-08-01T05:55:15.258Z,22.26
2022-08-01T05:58:17.724Z,22.36
2022-08-01T06:01:20.894Z,22.46
2022-08-01T06:04:23.633Z,22.61
2022-08-01T06:07:26.354Z,22.73
2022-08-01T06:10:28.958Z,22.87
2022-08-01T06:13:31.517Z,22.97
2022-08-01T06:16:34.169Z,23.09
2022-08-01T06:19:36.897Z,23.24
2022-08-01T06:22:39.570Z,23.39
2022-08-01T06:25:44.325Z,23.57
2022-08-01T06:28:47.482Z,23.76
2022-08-01T06:31:50.189Z,23.89
2022-08-01T06:34:52.880Z,24.06
2022-08-01T06:37:55.446Z,24.28
2022-08-01T06:40:58.323Z,24.52
2022-08-01T06:44:03.317Z,24.64
2022-08-01T06:47:06.076Z,24.82
2022-08-01T06:50:09.851Z,25.08
2022-08-01T06:53:13.914Z,25.20
2022-08-01T06:56:16.419Z,25.46
2022-08-01T06:59:19.482Z,25.64
2022-08-01T07:02:22.703Z,25.83
2022-08-01T07:05:25.313Z,26.08
2022-08-01T07:08:28.023Z,26.35
2022-08-01T07:11:30.590Z,26.64
2022-08-01T07:14:33.006Z,26.79
2022-08-01T07:17:41.755Z,27.07
2022-08-01T07:20:52.683Z,27.32
2022-08-01T07:23:55.819Z,27.64
2022-08-01T07:26:58.705Z,27.94
2022-08-01T07:30:14.060Z,28.17
2022-08-01T07:33:16.768Z,28.45
2022-08-01T07:36:19.526Z,28.70
2022-08-01T07:39:22.174Z,29.00
2022-08-01T07:42:24.736Z,29.32
2022-08-01T07:45:27.983Z,29.62
2022-08-01T07:48:30.603Z,29.92
2022-08-01T07:51:33.390Z,30.30
2022-08-01T07:54:35.914Z,30.54
2022-08-01T07:57:38.466Z,30.90
2022-08-01T08:00:40.975Z,31.08
2022-08-01T08:03:43.761Z,31.09
2022-08-01T08:06:48.471Z,31.40
2022-08-01T08:09:51.508Z,32.03
2022-08-01T08:12:53.980Z,32.58
2022-08-01T08:15:57.000Z,33.24
2022-08-01T08:19:00.544Z,34.03
2022-08-01T08:22:03.503Z,34.51
2022-08-01T08:25:07.805Z,34.61
2022-08-01T08:28:10.651Z,34.28
2022-08-01T08:31:25.742Z,33.74
2022-08-01T08:34:35.732Z,33.10
2022-08-01T08:37:47.231Z,32.49
2022-08-01T08:40:52.120Z,32.16
2022-08-01T08:43:54.523Z,31.90
2022-08-01T08:46:58.660Z,31.64
2022-08-01T08:50:01.381Z,31.36
2022-08-01T08:53:06.419Z,31.11
2022-08-01T08:56:09.424Z,30.94
2022-08-01T08:59:14.186Z,30.86
2022-08-01T09:02:17.495Z,30.62
2022-08-01T09:05:26.591Z,30.43
2022-08-01T09:08:41.499Z,30.34
2022-08-01T09:12:06.994Z,30.31
2022-08-01T09:15:09.437Z,30.25
2022-08-01T09:18:32.981Z,30.37
2022-08-01T09:21:35.196Z,30.40
2022-08-01T09:24:38.563Z,30.36
2022-08-01T09:27:44.243Z,30.34
2022-08-01T09:30:49.299Z,30.33
2022-08-01T09:33:53.361Z,30.24
2022-08-01T09:36:57.173Z,30.26
2022-08-01T09:39:59.615Z,30.38
2022-08-01T09:43:12.109Z,30.38
2022-08-01T09:46:17.662Z,30.46
2022-08-01T09:49:49.693Z,30.79
2022-08-01T09:52:54.901Z,30.83
2022-08-01T09:56:09.530Z,30.95
2022-08-01T09:59:11.767Z,31.12
2022-08-01T10:02:16.560Z,31.50
2022-08-01T10:05:36.870Z,32.07
2022-08-01T10:08:49.381Z,32.34
2022-08-01T10:11:52.465Z,32.57
2022-08-01T10:14:56.389Z,32.67
2022-08-01T10:18:00.350Z,32.89
2022-08-01T10:21:04.059Z,33.54
2022-08-01T10:24:14.989Z,34.12
2022-08-01T10:27:37.832Z,34.07
2022-08-01T10:30:42.858Z,33.74
2022-08-01T10:33:50.773Z,33.47
2022-08-01T10:36:55.792Z,33.34
2022-08-01T10:40:27.210Z,33.49
2022-08-01T10:43:22.356Z,33.51
2022-08-01T10:46:25.799Z,33.46
2022-08-01T10:49:30.397Z,33.44
2022-08-01T10:52:35.431Z,33.52
2022-08-01T10:55:50.996Z,33.71
2022-08-01T10:59:01.317Z,33.68
2022-08-01T11:02:05.390Z,33.44
2022-08-01T11:05:14.223Z,33.20
2022-08-01T11:08:24.075Z,32.99
2022-08-01T11:11:26.573Z,33.07
2022-08-01T11:14:46.692Z,33.24
2022-08-01T11:17:54.792Z,33.27
2022-08-01T11:21:58.761Z,33.50
2022-08-01T11:24:43.570Z,33.66
2022-08-01T11:27:46.569Z,34.10
2022-08-01T11:30:53.441Z,35.38
2022-08-01T11:33:59.265Z,36.60
2022-08-01T11:37:34.021Z,37.04
2022-08-01T11:40:37.596Z,37.23
2022-08-01T11:43:59.135Z,37.72
2022-08-01T11:47:09.296Z,38.03
2022-08-01T11:50:31.335Z,38.45
2022-08-01T11:53:34.370Z,38.89
2022-08-01T11:56:42.979Z,39.32
2022-08-01T12:00:03.969Z,39.71
2022-08-01T12:03:19.994Z,39.54
2022-08-01T12:06:35.186Z,39.74
2022-08-01T12:09:37.649Z,39.95
2022-08-01T12:12:47.581Z,40.08
2022-08-01T12:15:56.240Z,40.01
2022-08-01T12:18:59.322Z,39.69
2022-08-01T12:22:12.499Z,39.52
2022-08-01T12:25:17.063Z,39.41
2022-08-01T12:28:19.689Z,39.43
2022-08-01T12:31:31.781Z,39.54
2022-08-01T12:34:35.218Z,39.47
2022-08-01T12:38:01.213Z,39.24
2022-08-01T12:41:04.823Z,38.89
2022-08-01T12:44:14.390Z,38.18
2022-08-01T12:47:16.981Z,37.19
2022-08-01T12:50:23.437Z,36.52
2022-08-01T12:53:26.972Z,36.14
2022-08-01T12:56:42.493Z,36.79
2022-08-01T12:59:49.747Z,37.43
2022-08-01T13:03:02.081Z,37.89
2022-08-01T13:06:11.123Z,38.34
2022-08-01T13:09:14.532Z,38.67
2022-08-01T13:12:17.064Z,38.55
2022-08-01T13:15:33.241Z,38.38
2022-08-01T13:18:36.428Z,38.39
2022-08-01T13:21:53.265Z,38.45
2022-08-01T13:25:09.938Z,38.47
2022-08-01T13:28:16.531Z,38.42
2022-08-01T13:31:18.967Z,38.18
2022-08-01T13:34:31.167Z,37.38
2022-08-01T13:37:33.628Z,36.73
2022-08-01T13:40:36.289Z,36.58
2022-08-01T13:43:58.692Z,36.64
2022-08-01T13:47:02.547Z,36.59
2022-08-01T13:50:18.431Z,36.48
2022-08-01T13:53:23.432Z,36.46
2022-08-01T13:56:25.994Z,36.31
2022-08-01T13:59:28.646Z,36.37
2022-08-01T14:02:31.093Z,36.41
2022-08-01T14:05:34.101Z,36.36
2022-08-01T14:08:36.630Z,36.06
2022-08-01T14:11:39.650Z,35.95
2022-08-01T14:14:48.415Z,35.87
2022-08-01T14:17:50.899Z,35.84
2022-08-01T14:20:53.829Z,35.73
2022-08-01T14:23:59.289Z,35.37
2022-08-01T14:27:03.102Z,35.24
2022-08-01T14:30:05.957Z,35.02
2022-08-01T14:33:08.377Z,34.76
2022-08-01T14:36:29.324Z,34.55
2022-08-01T14:39:33.714Z,34.38
2022-08-01T14:42:38.020Z,34.30
2022-08-01T14:45:40.971Z,34.26
2022-08-01T14:48:43.496Z,33.94
2022-08-01T14:51:46.187Z,33.82
2022-08-01T14:54:48.769Z,33.60
2022-08-01T14:57:51.230Z,33.30
2022-08-01T15:00:58.540Z,33.19
2022-08-01T15:04:01.849Z,33.01
2022-08-01T15:07:07.084Z,32.96
2022-08-01T15:10:10.456Z,32.82
2022-08-01T15:13:13.137Z,32.76
2022-08-01T15:16:15.600Z,32.66
2022-08-01T15:19:18.123Z,32.48
2022-08-01T15:22:22.373Z,32.35
2022-08-01T15:25:25.092Z,32.20
2022-08-01T15:28:27.669Z,32.12
2022-08-01T15:31:30.228Z,32.04
2022-08-01T15:34:33.091Z,31.97
2022-08-01T15:37:40.869Z,31.89
2022-08-01T15:40:45.196Z,31.65
2022-08-01T15:43:48.044Z,31.61
2022-08-01T15:46:58.646Z,31.50
2022-08-01T15:50:02.872Z,31.33
2022-08-01T15:53:05.891Z,31.18
2022-08-01T15:56:08.593Z,31.20
2022-08-01T15:59:11.204Z,31.13
2022-08-01T16:02:14.588Z,31.08
2022-08-01T16:05:20.285Z,30.96
2022-08-01T16:08:23.161Z,30.85
2022-08-01T16:11:27.717Z,30.78
2022-08-01T16:14:29.982Z,30.69
2022-08-01T16:17:32.971Z,30.50
2022-08-01T16:20:35.353Z,30.39
2022-08-01T16:23:38.628Z,30.39
2022-08-01T16:26:40.906Z,30.27
2022-08-01T16:29:43.660Z,30.19
2022-08-01T16:32:53.695Z,30.21
2022-08-01T16:36:03.706Z,30.17
2022-08-01T16:39:07.749Z,30.09
2022-08-01T16:42:13.423Z,30.03
2022-08-01T16:45:15.693Z,29.91
2022-08-01T16:48:19.718Z,29.85
2022-08-01T16:51:22.089Z,29.71
2022-08-01T16:54:26.382Z,29.64
2022-08-01T16:57:32.991Z,29.59
2022-08-01T17:00:35.809Z,29.45
2022-08-01T17:03:52.554Z,29.38
2022-08-01T17:06:57.668Z,29.28
2022-08-01T17:10:01.073Z,29.18
2022-08-01T17:13:04.479Z,29.09
2022-08-01T17:16:07.500Z,29.02
2022-08-01T17:19:10.298Z,28.90
2022-08-01T17:22:13.157Z,28.83
2022-08-01T17:25:16.254Z,28.68
2022-08-01T17:28:19.848Z,28.56
2022-08-01T17:31:22.682Z,28.58
2022-08-01T17:34:25.129Z,28.55
2022-08-01T17:37:27.944Z,28.41
2022-08-01T17:40:40.106Z,28.40
2022-08-01T17:43:43.432Z,28.28
2022-08-01T17:46:45.713Z,28.15
2022-08-01T17:49:56.153Z,28.15
2022-08-01T17:52:58.510Z,28.08
2022-08-01T17:56:02.984Z,28.09
2022-08-01T17:59:05.235Z,27.91
2022-08-01T18:02:07.964Z,27.83
2022-08-01T18:05:11.683Z,27.81
2022-08-01T18:08:18.669Z,27.77
2022-08-01T18:11:21.778Z,27.65
2022-08-01T18:14:34.736Z,27.60
2022-08-01T18:17:43.662Z,27.48
2022-08-01T18:20:46.842Z,27.54
2022-08-01T18:23:51.762Z,27.38
2022-08-01T18:26:55.150Z,27.36
2022-08-01T18:29:58.306Z,27.22
2022-08-01T18:33:00.732Z,27.18
2022-08-01T18:36:04.641Z,27.15
2022-08-01T18:39:10.065Z,27.10
2022-08-01T18:42:13.297Z,27.00
2022-08-01T18:45:15.954Z,26.99
2022-08-01T18:48:20.327Z,26.92
2022-08-01T18:51:22.845Z,26.93
2022-08-01T18:54:26.565Z,26.96
2022-08-01T18:57:29.058Z,26.84
2022-08-01T19:00:31.717Z,26.81
2022-08-01T19:03:34.408Z,26.80
2022-08-01T19:06:37.889Z,26.78
2022-08-01T19:09:40.332Z,26.76
2022-08-01T19:12:43.472Z,26.72
2022-08-01T19:15:45.900Z,26.68
2022-08-01T19:18:48.477Z,26.64
2022-08-01T19:21:50.937Z,26.58
2022-08-01T19:24:53.439Z,26.56
2022-08-01T19:27:58.001Z,26.51
2022-08-01T19:31:02.302Z,26.46
2022-08-01T19:34:05.895Z,26.41
2022-08-01T19:37:09.014Z,26.46
2022-08-01T19:40:26.285Z,26.43
2022-08-01T19:43:32.584Z,26.33
2022-08-01T19:46:39.260Z,26.27
2022-08-01T19:49:41.854Z,26.25
2022-08-01T19:52:45.084Z,26.19
2022-08-01T19:55:48.688Z,26.17
2022-08-01T19:58:52.862Z,26.15
2022-08-01T20:02:03.221Z,26.10
2022-08-01T20:05:06.328Z,26.06
2022-08-01T20:08:09.213Z,26.07
2022-08-01T20:11:14.616Z,26.03
2022-08-01T20:14:20.118Z,25.97
2022-08-01T20:17:23.809Z,25.93
2022-08-01T20:20:27.177Z,25.90
2022-08-01T20:23:31.787Z,25.86
2022-08-01T20:26:35.100Z,25.82
2022-08-01T20:29:38.107Z,25.81
2022-08-01T20:32:40.903Z,25.79
2022-08-01T20:35:52.979Z,25.75
2022-08-01T20:38:56.767Z,25.73
2022-08-01T20:42:00.933Z,25.68
2022-08-01T20:45:04.656Z,25.65
2022-08-01T20:48:08.127Z,25.58
2022-08-01T20:51:16.494Z,25.57
2022-08-01T20:54:19.921Z,25.54
2022-08-01T20:57:25.880Z,25.55
2022-08-01T21:00:28.994Z,25.58
2022-08-01T21:03:36.894Z,25.51
2022-08-01T21:06:45.684Z,25.51
2022-08-01T21:09:53.183Z,25.44
2022-08-01T21:13:01.363Z,25.43
2022-08-01T21:16:23.129Z,25.41
2022-08-01T21:19:27.974Z,25.36
2022-08-01T21:22:53.678Z,25.31
2022-08-01T21:25:58.247Z,25.29
2022-08-01T21:29:02.711Z,25.28
2022-08-01T21:32:15.413Z,25.26
2022-08-01T21:35:18.871Z,25.24
2022-08-01T21:38:23.071Z,25.21
2022-08-01T21:41:56.662Z,25.18
2022-08-01T21:44:49.380Z,25.12
2022-08-01T21:47:52.301Z,25.07
2022-08-01T21:50:57.012Z,25.04
2022-08-01T21:54:23.639Z,25.03
2022-08-01T21:57:32.189Z,25.02
2022-08-01T22:00:36.484Z,24.99
2022-08-01T22:03:42.288Z,24.96
2022-08-01T22:06:45.540Z,24.95
2022-08-01T22:09:49.335Z,24.93
2022-08-01T22:12:51.975Z,24.87
2022-08-01T22:15:58.881Z,24.85
2022-08-01T22:19:05.014Z,24.82
2022-08-01T22:22:42.384Z,24.82
2022-08-01T22:25:33.412Z,24.77
2022-08-01T22:28:36.667Z,24.81
2022-08-01T22:31:41.800Z,24.75
2022-08-01T22:34:44.525Z,24.74
2022-08-01T22:37:56.325Z,24.71
2022-08-01T22:41:08.626Z,24.72
2022-08-01T22:44:14.060Z,24.73
2022-08-01T22:47:28.286Z,24.73
2022-08-01T22:50:36.868Z,24.71
2022-08-01T22:53:45.487Z,24.68
2022-08-01T22:56:50.505Z,24.64
2022-08-01T23:00:04.907Z,24.58
2022-08-01T23:03:40.237Z,24.58
2022-08-01T23:06:43.277Z,24.53
2022-08-01T23:09:53.712Z,24.50
2022-08-01T23:12:57.927Z,24.46
2022-08-01T23:16:01.451Z,24.45
2022-08-01T23:19:04.260Z,24.45
2022-08-01T23:22:07.358Z,24.43
2022-08-01T23:25:11.981Z,24.38
2022-08-01T23:28:14.967Z,24.35
2022-08-01T23:31:17.891Z,24.32
2022-08-01T23:34:20.338Z,24.26
2022-08-01T23:37:23.095Z,24.22
2022-08-01T23:40:25.639Z,24.20
2022-08-01T23:43:28.519Z,24.18
2022-08-01T23:46:30.751Z,24.15
2022-08-01T23:49:33.681Z,24.12
2022-08-01T23:52:55.569Z,24.13
2022-08-01T23:56:00.986Z,24.07
2022-08-01T23:59:05.004Z,24.05
